Il Post

 
 

Meteo Giornale » Osservazioni meteo Austria » Salisburgo

ore: 19:50 - Osservazioni Meteo Salisburgo
Lat. 47° 48' N Lon. 13° 0' E Alt. 430 metri s.l.m.

poco_nuvoloso Europe/Vienna

25 °C

Poco Nuvoloso

Temp. 24 Ore

14 °C

27 °C

Est/Nord-Est

13 Km/h

Dew point 13 °C

Umidità 47 %

Visibilità  10 Km

Il sole sorge alle ore 05:34

Il sole tramonta alle ore 20:54

Data e Ora Cielo e Fenomeni T °C DP °C Um. % Pres. hPa Vis. km Vento km/h
Oggi h: 19:50 poco_nuvoloso Poco Nuvoloso 25 13 47 1012 10 E/NE 13
Oggi h: 19:20 poco_nuvoloso Poco Nuvoloso 26 12 41 1012 10 NE 9.3
Oggi h: 18:50 poco_nuvoloso Poco Nuvoloso 26 12 41 1012 10 E 9.3
Oggi h: 18:20 poco_nuvoloso Poco Nuvoloso 26 12 41 1012 10 N/NE 11.1
Oggi h: 17:50 poco_nuvoloso Poco Nuvoloso 27 10 34 1012 10 N 9.3
Oggi h: 17:20 poco_nuvoloso Poco Nuvoloso 27 10 34 1012 10 NE 7.4
Oggi h: 16:50 poco_nuvoloso Poco Nuvoloso 27 12 39 1012 10 N 3.7
Oggi h: 16:20 poco_nuvoloso Poco Nuvoloso 27 12 39 1013 10 N/NO 11.1
Oggi h: 15:50 poco_nuvoloso Poco Nuvoloso 27 13 42 1013 10 N/NO 11.1
Oggi h: 15:20 poco_nuvoloso Poco Nuvoloso 26 12 41 1013 10 N/NO 9.3
Oggi h: 14:50 poco_nuvoloso Poco Nuvoloso 26 12 41 1013 10 NO 13
Oggi h: 14:20 poco_nuvoloso Poco Nuvoloso 26 10 36 1013 10 N/NO 11.1
Oggi h: 13:50 poco_nuvoloso Poco Nuvoloso 25 10 38 1014 10 NO 7.4
Oggi h: 13:20 nuvoloso Nuvoloso 24 13 50 1014 10 N/NO 13
Oggi h: 12:50 nuvoloso Nuvoloso 25 12 44 1014 10 N/NO 9.3
Oggi h: 12:20 nuvoloso Nuvoloso 25 13 47 1014 10 N 7.4
Oggi h: 11:50 nuvoloso Nuvoloso 24 13 50 1014 10 N 5.5
Oggi h: 11:20 molto_nuvoloso Molto Nuvoloso 23 13 53 1014 10 N 3.7
Oggi h: 10:50 nuvoloso Nuvoloso 23 13 53 1014 10 N 3.7
Oggi h: 10:20 nuvoloso Nuvoloso 22 14 60 1014 10 N 5.5
Oggi h: 09:50 nuvoloso Nuvoloso 22 14 60 1014 10 S/SE 9.3
Oggi h: 09:20 nuvoloso Nuvoloso 21 15 68 1014 10 S/SE 13
Oggi h: 08:50 nuvoloso Nuvoloso 19 14 72 1014 10 S/SE 13
Oggi h: 08:20 nuvoloso Nuvoloso 18 13 72 1014 10 S/SE 13
Oggi h: 07:50 nuvoloso Nuvoloso 17 13 77 1014 10 S/SE 14.8
Oggi h: 07:20 nuvoloso Nuvoloso 16 13 82 1014 10 S 14.8
Oggi h: 06:50 sereno Sereno 15 12 82 1014 10 S 11.1
Oggi h: 06:20 nuvoloso Nuvoloso 14 12 87 1014 10 S 11.1
Oggi h: 05:50 nuvoloso Nuvoloso 15 12 82 1014 10 S 13
Oggi h: 05:20 sereno Sereno 15 12 82 1014 10 S 11.1
Oggi h: 04:50 sereno Sereno 16 12 77 1013 10 S/SE 13
Oggi h: 04:20 sereno Sereno 16 13 82 1013 10 S/SE 13
Oggi h: 03:50 sereno Sereno 16 13 82 1013 10 S/SE 11.1
Oggi h: 03:20 sereno Sereno 17 12 72 1013 10 S/SE 14.8
Oggi h: 02:50 sereno Sereno 17 13 77 1013 10 S/SE 13
Oggi h: 02:20 sereno Sereno 17 13 77 1013 10 S/SE 11.1
Oggi h: 01:50 sereno Sereno 17 13 77 1013 10 S/SE 13
Oggi h: 01:20 sereno Sereno 17 13 77 1013 10 S/SE 11.1
Oggi h: 00:50 sereno Sereno 18 13 72 1013 10 S/SE 11.1
Oggi h: 00:20 sereno Sereno 17 13 77 1013 10 S 11.1
Ieri h: 23:50 sereno Sereno 18 13 72 1013 10 S 11.1
Ieri h: 23:20 sereno Sereno 18 13 72 1013 10 S 7.4
Ieri h: 22:50 molto_nuvoloso Molto Nuvoloso 18 13 72 1013 10 S/SE 11.1
Ieri h: 22:20 molto_nuvoloso Molto Nuvoloso 19 14 72 1013 10 S 11.1
Ieri h: 21:50 molto_nuvoloso Molto Nuvoloso 19 14 72 1013 10 O/SO 7.4
Ieri h: 21:20 molto_nuvoloso Molto Nuvoloso 19 15 77 1012 10 SO 7.4
Ieri h: 20:50 molto_nuvoloso Molto Nuvoloso 21 14 64 1012 10 N 5.5